sensor_id;sensor_type;location;lat;lon;timestamp;P1;durP1;ratioP1;P2;durP2;ratioP2
928;SDS011;451;47.988;7.842;2023-02-01T00:03:23;6.63;;;6.00;;
928;SDS011;451;47.988;7.842;2023-02-01T00:12:27;6.60;;;6.00;;
928;SDS011;451;47.988;7.842;2023-02-01T00:21:30;7.53;;;6.07;;
928;SDS011;451;47.988;7.842;2023-02-01T00:30:35;8.37;;;5.93;;
928;SDS011;451;47.988;7.842;2023-02-01T00:39:38;5.37;;;4.67;;
928;SDS011;451;47.988;7.842;2023-02-01T00:48:43;5.60;;;5.10;;
928;SDS011;451;47.988;7.842;2023-02-01T00:57:47;5.70;;;5.10;;
928;SDS011;451;47.988;7.842;2023-02-01T01:06:51;6.60;;;4.63;;
928;SDS011;451;47.988;7.842;2023-02-01T01:15:54;7.50;;;5.83;;
928;SDS011;451;47.988;7.842;2023-02-01T01:24:59;5.27;;;4.77;;
928;SDS011;451;47.988;7.842;2023-02-01T01:34:11;6.03;;;5.23;;
928;SDS011;451;47.988;7.842;2023-02-01T01:43:19;6.40;;;5.67;;
928;SDS011;451;47.988;7.842;2023-02-01T01:52:24;7.30;;;4.93;;
928;SDS011;451;47.988;7.842;2023-02-01T02:01:29;5.80;;;5.00;;
928;SDS011;451;47.988;7.842;2023-02-01T02:10:33;8.00;;;5.07;;
928;SDS011;451;47.988;7.842;2023-02-01T02:20:12;6.37;;;4.73;;
928;SDS011;451;47.988;7.842;2023-02-01T02:29:38;4.60;;;4.10;;
928;SDS011;451;47.988;7.842;2023-02-01T02:39:00;5.00;;;4.37;;
928;SDS011;451;47.988;7.842;2023-02-01T02:48:11;4.60;;;4.20;;
928;SDS011;451;47.988;7.842;2023-02-01T02:57:22;4.80;;;4.33;;
928;SDS011;451;47.988;7.842;2023-02-01T03:06:47;5.50;;;4.50;;
928;SDS011;451;47.988;7.842;2023-02-01T03:15:53;4.57;;;4.17;;
928;SDS011;451;47.988;7.842;2023-02-01T03:25:04;5.50;;;3.73;;
928;SDS011;451;47.988;7.842;2023-02-01T03:34:13;4.00;;;3.60;;
928;SDS011;451;47.988;7.842;2023-02-01T03:43:18;5.67;;;4.90;;
928;SDS011;451;47.988;7.842;2023-02-01T03:52:26;5.63;;;4.93;;
928;SDS011;451;47.988;7.842;2023-02-01T04:01:31;7.80;;;5.47;;
928;SDS011;451;47.988;7.842;2023-02-01T04:10:36;7.07;;;5.93;;
928;SDS011;451;47.988;7.842;2023-02-01T04:19:40;8.07;;;6.77;;
928;SDS011;451;47.988;7.842;2023-02-01T04:28:44;7.97;;;6.67;;
928;SDS011;451;47.988;7.842;2023-02-01T04:37:49;6.07;;;5.47;;
928;SDS011;451;47.988;7.842;2023-02-01T04:46:53;7.50;;;6.00;;
928;SDS011;451;47.988;7.842;2023-02-01T04:55:56;6.60;;;5.23;;
928;SDS011;451;47.988;7.842;2023-02-01T05:05:01;8.17;;;5.07;;
928;SDS011;451;47.988;7.842;2023-02-01T05:14:04;4.60;;;4.20;;
928;SDS011;451;47.988;7.842;2023-02-01T05:23:08;4.50;;;3.87;;
928;SDS011;451;47.988;7.842;2023-02-01T05:32:11;5.60;;;4.73;;
928;SDS011;451;47.988;7.842;2023-02-01T05:41:16;7.03;;;4.60;;
928;SDS011;451;47.988;7.842;2023-02-01T05:50:18;5.93;;;4.97;;
928;SDS011;451;47.988;7.842;2023-02-01T05:59:23;4.97;;;4.50;;
928;SDS011;451;47.988;7.842;2023-02-01T06:08:26;5.77;;;4.83;;
928;SDS011;451;47.988;7.842;2023-02-01T06:17:30;4.33;;;3.93;;
928;SDS011;451;47.988;7.842;2023-02-01T06:26:33;5.40;;;3.83;;
928;SDS011;451;47.988;7.842;2023-02-01T06:35:38;5.03;;;3.97;;
928;SDS011;451;47.988;7.842;2023-02-01T06:44:42;4.00;;;3.20;;
928;SDS011;451;47.988;7.842;2023-02-01T06:53:47;4.00;;;3.60;;
928;SDS011;451;47.988;7.842;2023-02-01T07:02:50;3.60;;;3.30;;
928;SDS011;451;47.988;7.842;2023-02-01T07:11:54;2.70;;;2.50;;
928;SDS011;451;47.988;7.842;2023-02-01T07:20:57;3.77;;;2.73;;
928;SDS011;451;47.988;7.842;2023-02-01T07:30:03;4.80;;;2.83;;
928;SDS011;451;47.988;7.842;2023-02-01T07:39:07;3.17;;;2.87;;
928;SDS011;451;47.988;7.842;2023-02-01T07:48:11;3.83;;;3.57;;
928;SDS011;451;47.988;7.842;2023-02-01T07:57:14;4.40;;;2.60;;
928;SDS011;451;47.988;7.842;2023-02-01T08:06:18;4.57;;;4.00;;
928;SDS011;451;47.988;7.842;2023-02-01T08:15:22;3.73;;;3.43;;
928;SDS011;451;47.988;7.842;2023-02-01T08:24:26;4.10;;;3.67;;
928;SDS011;451;47.988;7.842;2023-02-01T08:33:32;2.90;;;2.70;;
928;SDS011;451;47.988;7.842;2023-02-01T08:42:36;2.67;;;2.47;;
928;SDS011;451;47.988;7.842;2023-02-01T08:52:02;3.37;;;3.17;;
928;SDS011;451;47.988;7.842;2023-02-01T09:01:07;3.53;;;3.23;;
928;SDS011;451;47.988;7.842;2023-02-01T09:10:13;2.50;;;2.30;;
928;SDS011;451;47.988;7.842;2023-02-01T09:19:18;2.13;;;2.00;;
928;SDS011;451;47.988;7.842;2023-02-01T09:28:21;3.63;;;3.30;;
928;SDS011;451;47.988;7.842;2023-02-01T09:37:25;4.00;;;3.70;;
928;SDS011;451;47.988;7.842;2023-02-01T09:46:29;4.07;;;3.77;;
928;SDS011;451;47.988;7.842;2023-02-01T09:55:38;6.17;;;4.30;;
928;SDS011;451;47.988;7.842;2023-02-01T10:04:44;5.87;;;4.67;;
928;SDS011;451;47.988;7.842;2023-02-01T10:13:52;5.33;;;4.60;;
928;SDS011;451;47.988;7.842;2023-02-01T10:23:04;8.40;;;5.40;;
928;SDS011;451;47.988;7.842;2023-02-01T10:32:16;6.40;;;5.20;;
928;SDS011;451;47.988;7.842;2023-02-01T10:41:23;5.73;;;5.23;;
928;SDS011;451;47.988;7.842;2023-02-01T10:50:35;7.77;;;4.70;;
928;SDS011;451;47.988;7.842;2023-02-01T10:59:41;5.00;;;4.50;;
928;SDS011;451;47.988;7.842;2023-02-01T11:08:51;6.60;;;3.77;;
928;SDS011;451;47.988;7.842;2023-02-01T11:17:55;6.13;;;4.87;;
928;SDS011;451;47.988;7.842;2023-02-01T11:27:02;6.07;;;4.83;;
928;SDS011;451;47.988;7.842;2023-02-01T11:36:08;9.07;;;5.83;;
928;SDS011;451;47.988;7.842;2023-02-01T11:45:18;5.60;;;5.10;;
928;SDS011;451;47.988;7.842;2023-02-01T11:54:27;7.73;;;5.00;;
928;SDS011;451;47.988;7.842;2023-02-01T12:13:24;5.40;;;4.70;;
928;SDS011;451;47.988;7.842;2023-02-01T12:22:45;7.07;;;5.20;;
928;SDS011;451;47.988;7.842;2023-02-01T12:32:09;8.10;;;4.83;;
928;SDS011;451;47.988;7.842;2023-02-01T12:41:27;7.00;;;5.93;;
928;SDS011;451;47.988;7.842;2023-02-01T12:50:41;7.13;;;5.63;;
928;SDS011;451;47.988;7.842;2023-02-01T12:59:49;6.20;;;4.87;;
928;SDS011;451;47.988;7.842;2023-02-01T13:08:59;7.03;;;5.30;;
928;SDS011;451;47.988;7.842;2023-02-01T13:18:09;8.70;;;5.57;;
928;SDS011;451;47.988;7.842;2023-02-01T13:27:17;7.53;;;4.43;;
928;SDS011;451;47.988;7.842;2023-02-01T13:36:29;8.23;;;4.80;;
928;SDS011;451;47.988;7.842;2023-02-01T13:45:46;6.57;;;4.90;;
928;SDS011;451;47.988;7.842;2023-02-01T13:55:01;9.37;;;5.80;;
928;SDS011;451;47.988;7.842;2023-02-01T14:13:50;6.40;;;4.43;;
928;SDS011;451;47.988;7.842;2023-02-01T14:22:59;7.50;;;4.60;;
928;SDS011;451;47.988;7.842;2023-02-01T14:32:06;6.30;;;5.17;;
928;SDS011;451;47.988;7.842;2023-02-01T14:41:23;6.40;;;4.50;;
928;SDS011;451;47.988;7.842;2023-02-01T14:50:33;7.33;;;4.43;;
928;SDS011;451;47.988;7.842;2023-02-01T14:59:41;14.07;;;8.13;;
928;SDS011;451;47.988;7.842;2023-02-01T15:08:46;5.80;;;4.53;;
928;SDS011;451;47.988;7.842;2023-02-01T15:17:51;7.43;;;5.13;;
928;SDS011;451;47.988;7.842;2023-02-01T15:27:01;7.80;;;5.03;;
928;SDS011;451;47.988;7.842;2023-02-01T15:36:07;8.70;;;4.60;;
928;SDS011;451;47.988;7.842;2023-02-01T15:45:17;10.70;;;5.93;;
928;SDS011;451;47.988;7.842;2023-02-01T15:54:23;9.40;;;4.80;;
928;SDS011;451;47.988;7.842;2023-02-01T16:03:34;8.27;;;4.30;;
928;SDS011;451;47.988;7.842;2023-02-01T16:12:45;9.70;;;5.90;;
928;SDS011;451;47.988;7.842;2023-02-01T16:21:55;8.13;;;3.83;;
928;SDS011;451;47.988;7.842;2023-02-01T16:30:59;10.77;;;5.40;;
928;SDS011;451;47.988;7.842;2023-02-01T16:40:05;7.30;;;4.80;;
928;SDS011;451;47.988;7.842;2023-02-01T16:49:16;4.10;;;3.70;;
928;SDS011;451;47.988;7.842;2023-02-01T16:58:23;10.40;;;5.97;;
928;SDS011;451;47.988;7.842;2023-02-01T17:07:27;12.23;;;5.70;;
928;SDS011;451;47.988;7.842;2023-02-01T17:16:31;7.20;;;4.60;;
928;SDS011;451;47.988;7.842;2023-02-01T17:25:35;9.50;;;4.60;;
928;SDS011;451;47.988;7.842;2023-02-01T17:34:39;5.47;;;4.80;;
928;SDS011;451;47.988;7.842;2023-02-01T17:43:42;9.23;;;5.10;;
928;SDS011;451;47.988;7.842;2023-02-01T17:52:46;8.07;;;5.00;;
928;SDS011;451;47.988;7.842;2023-02-01T18:01:49;8.33;;;5.90;;
928;SDS011;451;47.988;7.842;2023-02-01T18:10:55;7.63;;;4.50;;
928;SDS011;451;47.988;7.842;2023-02-01T18:20:01;11.90;;;6.23;;
928;SDS011;451;47.988;7.842;2023-02-01T18:29:05;9.97;;;5.60;;
928;SDS011;451;47.988;7.842;2023-02-01T18:38:08;8.13;;;5.00;;
928;SDS011;451;47.988;7.842;2023-02-01T18:47:13;12.73;;;5.20;;
928;SDS011;451;47.988;7.842;2023-02-01T18:56:16;10.10;;;6.13;;
928;SDS011;451;47.988;7.842;2023-02-01T19:05:20;17.17;;;5.83;;
928;SDS011;451;47.988;7.842;2023-02-01T19:14:23;7.63;;;4.73;;
928;SDS011;451;47.988;7.842;2023-02-01T19:23:28;11.90;;;5.27;;
928;SDS011;451;47.988;7.842;2023-02-01T19:32:31;12.33;;;5.80;;
928;SDS011;451;47.988;7.842;2023-02-01T19:41:35;9.27;;;5.53;;
928;SDS011;451;47.988;7.842;2023-02-01T19:50:39;7.10;;;4.90;;
928;SDS011;451;47.988;7.842;2023-02-01T19:59:43;7.70;;;4.90;;
928;SDS011;451;47.988;7.842;2023-02-01T20:08:47;12.07;;;5.60;;
928;SDS011;451;47.988;7.842;2023-02-01T20:17:52;8.27;;;5.40;;
928;SDS011;451;47.988;7.842;2023-02-01T20:26:55;6.70;;;5.10;;
928;SDS011;451;47.988;7.842;2023-02-01T20:35:59;9.30;;;4.50;;
928;SDS011;451;47.988;7.842;2023-02-01T20:45:03;4.20;;;3.33;;
928;SDS011;451;47.988;7.842;2023-02-01T20:54:07;8.33;;;4.50;;
928;SDS011;451;47.988;7.842;2023-02-01T21:03:10;3.37;;;3.07;;
928;SDS011;451;47.988;7.842;2023-02-01T21:12:15;5.87;;;3.67;;
928;SDS011;451;47.988;7.842;2023-02-01T21:21:18;7.77;;;4.23;;
928;SDS011;451;47.988;7.842;2023-02-01T21:30:23;11.97;;;5.97;;
928;SDS011;451;47.988;7.842;2023-02-01T21:39:26;8.93;;;4.47;;
928;SDS011;451;47.988;7.842;2023-02-01T21:48:30;9.33;;;4.00;;
928;SDS011;451;47.988;7.842;2023-02-01T21:57:33;12.23;;;4.93;;
928;SDS011;451;47.988;7.842;2023-02-01T22:06:38;10.63;;;5.17;;
928;SDS011;451;47.988;7.842;2023-02-01T22:15:42;10.70;;;4.90;;
928;SDS011;451;47.988;7.842;2023-02-01T22:24:47;5.60;;;4.27;;
928;SDS011;451;47.988;7.842;2023-02-01T22:33:50;15.53;;;5.60;;
928;SDS011;451;47.988;7.842;2023-02-01T22:42:54;10.30;;;5.23;;
928;SDS011;451;47.988;7.842;2023-02-01T22:51:57;8.03;;;4.97;;
928;SDS011;451;47.988;7.842;2023-02-01T23:01:05;7.73;;;4.50;;
928;SDS011;451;47.988;7.842;2023-02-01T23:10:09;10.47;;;4.37;;
928;SDS011;451;47.988;7.842;2023-02-01T23:19:15;5.33;;;4.73;;
928;SDS011;451;47.988;7.842;2023-02-01T23:28:20;7.93;;;4.30;;
928;SDS011;451;47.988;7.842;2023-02-01T23:37:25;7.73;;;4.40;;
928;SDS011;451;47.988;7.842;2023-02-01T23:46:29;5.20;;;4.20;;
928;SDS011;451;47.988;7.842;2023-02-01T23:55:35;7.60;;;4.60;;
